Time;durP1;ratioP1;P1;durP2;ratioP2;P2;SDS_P1;SDS_P2;PMS_P1;PMS_P2;Temp;Humidity;BMP_temperature;BMP_pressure;BME280_temperature;BME280_humidity;BME280_pressure;Samples;Min_cycle;Max_cycle;Signal;HPM_P1;HPM_P2
2022/03/14 00:00:07;;;;;;;17.77;11.05;;;9.20;95.20;;;;;;5095667;28;20048;-75
2022/03/14 00:02:34;;;;;;;17.65;9.90;;;9.20;95.60;;;;;;5095692;28;20266;-75
2022/03/14 00:05:00;;;;;;;16.42;10.10;;;9.10;95.90;;;;;;5094702;28;20052;-75
2022/03/14 00:07:26;;;;;;;13.60;9.30;;;9.10;96.10;;;;;;5095688;28;20442;-75
2022/03/14 00:09:52;;;;;;;14.83;9.30;;;9.10;97.00;;;;;;5095616;28;20367;-75
2022/03/14 00:12:25;;;;;;;15.40;9.55;;;9.10;97.30;;;;;;5095531;28;20062;-75
2022/03/14 00:14:53;;;;;;;13.40;8.82;;;9.10;97.20;;;;;;5094679;28;20101;-75
2022/03/14 00:17:19;;;;;;;18.80;9.13;;;9.10;98.00;;;;;;5095343;28;20048;-75
2022/03/14 00:19:46;;;;;;;15.55;9.35;;;9.20;97.70;;;;;;5095321;28;20051;-75
2022/03/14 00:22:13;;;;;;;14.45;9.25;;;9.00;97.80;;;;;;5094503;28;20118;-75
2022/03/14 00:24:39;;;;;;;14.82;9.32;;;9.00;98.80;;;;;;5095179;28;20044;-75
2022/03/14 00:27:05;;;;;;;13.38;8.73;;;8.90;98.20;;;;;;5094462;28;20039;-75
2022/03/14 00:29:30;;;;;;;12.87;8.67;;;8.80;98.60;;;;;;5095177;28;20044;-75
2022/03/14 00:31:56;;;;;;;14.85;9.02;;;8.80;99.20;;;;;;5093943;28;20289;-75
2022/03/14 00:34:21;;;;;;;12.93;8.00;;;8.70;99.90;;;;;;5094967;28;20047;-75
2022/03/14 00:36:47;;;;;;;14.63;8.13;;;8.70;99.90;;;;;;5094941;28;20397;-75
2022/03/14 00:39:13;;;;;;;12.73;7.82;;;8.70;99.90;;;;;;5094974;28;20479;-75
2022/03/14 00:41:38;;;;;;;11.23;6.72;;;8.70;99.90;;;;;;5094368;28;20039;-75
2022/03/14 00:44:04;;;;;;;13.38;7.32;;;8.70;99.90;;;;;;5093800;28;20037;-75
2022/03/14 00:46:30;;;;;;;10.32;6.57;;;8.70;99.90;;;;;;5095223;28;20051;-75
2022/03/14 00:48:55;;;;;;;11.88;7.13;;;8.80;99.90;;;;;;5095002;28;20044;-75
2022/03/14 00:51:21;;;;;;;11.38;6.00;;;8.80;99.90;;;;;;5094776;28;20491;-76
2022/03/14 00:53:47;;;;;;;10.40;6.68;;;8.80;99.90;;;;;;5094650;28;20123;-75
2022/03/14 00:56:13;;;;;;;9.98;6.15;;;8.90;99.90;;;;;;5093445;28;20044;-75
2022/03/14 00:58:39;;;;;;;8.80;5.50;;;8.90;99.90;;;;;;5094643;28;20134;-75
2022/03/14 01:01:05;;;;;;;7.13;4.60;;;8.90;99.90;;;;;;5094618;28;20083;-74
2022/03/14 01:03:31;;;;;;;7.80;5.10;;;9.00;99.90;;;;;;5094584;28;20525;-74
2022/03/14 01:05:57;;;;;;;6.95;4.60;;;9.00;99.90;;;;;;5094511;28;20040;-74
2022/03/14 01:08:23;;;;;;;8.73;4.90;;;9.00;99.90;;;;;;5093251;28;20529;-76
2022/03/14 01:10:48;;;;;;;10.32;4.50;;;9.00;99.90;;;;;;5093115;28;20154;-74
2022/03/14 01:13:14;;;;;;;6.13;4.35;;;9.00;99.90;;;;;;5094466;28;20131;-74
2022/03/14 01:15:40;;;;;;;5.97;4.45;;;9.00;99.90;;;;;;5094447;28;20052;-74
2022/03/14 01:18:06;;;;;;;8.00;4.10;;;9.10;99.90;;;;;;5095003;28;20044;-74
2022/03/14 01:20:33;;;;;;;7.05;4.13;;;9.00;99.90;;;;;;5094268;28;20545;-74
2022/03/14 01:22:59;;;;;;;7.18;3.95;;;9.10;99.90;;;;;;5094176;28;20044;-75
2022/03/14 01:25:25;;;;;;;5.85;3.67;;;9.10;99.90;;;;;;5094018;28;20047;-75
2022/03/14 01:27:51;;;;;;;4.55;3.38;;;9.10;99.90;;;;;;5094136;28;20047;-75
2022/03/14 01:30:21;;;;;;;5.60;3.92;;;9.10;99.90;;;;;;5093177;28;20075;-74
2022/03/14 01:32:47;;;;;;;6.00;4.05;;;9.20;99.90;;;;;;5094104;28;20400;-75
2022/03/14 01:35:13;;;;;;;4.93;3.58;;;9.20;99.90;;;;;;5093965;28;20492;-75
2022/03/14 01:37:39;;;;;;;4.93;3.50;;;9.20;99.90;;;;;;5094056;28;20123;-75
2022/03/14 01:40:10;;;;;;;7.88;3.33;;;9.20;99.90;;;;;;5093949;28;20089;-75
2022/03/14 01:42:36;;;;;;;6.32;3.78;;;9.20;99.90;;;;;;5093270;28;20075;-75
2022/03/14 01:45:04;;;;;;;5.15;3.22;;;9.20;99.90;;;;;;5093905;28;20066;-75
2022/03/14 01:47:30;;;;;;;6.57;3.38;;;9.20;99.90;;;;;;5094006;28;20044;-75
2022/03/14 01:49:56;;;;;;;4.60;3.38;;;9.20;99.90;;;;;;5093891;28;20123;-75
2022/03/14 01:52:22;;;;;;;5.77;3.07;;;9.20;99.90;;;;;;5093884;28;20054;-75
2022/03/14 01:54:48;;;;;;;4.70;3.47;;;9.20;99.90;;;;;;5092792;28;20044;-75
2022/03/14 01:57:14;;;;;;;4.97;3.50;;;9.20;99.90;;;;;;5094198;28;20047;-75
2022/03/14 01:59:40;;;;;;;5.90;2.80;;;9.20;99.90;;;;;;5094107;28;20054;-75
2022/03/14 02:02:06;;;;;;;4.72;3.10;;;9.30;99.90;;;;;;5093807;28;20046;-75
2022/03/14 02:04:32;;;;;;;5.33;3.37;;;9.30;99.90;;;;;;5093793;28;20052;-75
2022/03/14 02:06:58;;;;;;;4.80;3.30;;;9.30;99.90;;;;;;5093794;28;20048;-75
2022/03/14 02:09:24;;;;;;;9.97;3.47;;;9.30;99.90;;;;;;5093329;28;20095;-75
2022/03/14 02:12:07;;;;;;;4.82;3.22;;;9.30;99.90;;;;;;5092990;28;20036;-75
2022/03/14 02:14:39;;;;;;;3.83;2.80;;;9.30;99.90;;;;;;5092472;28;20377;-75
2022/03/14 02:17:05;;;;;;;4.82;3.20;;;9.20;99.90;;;;;;5093705;28;20086;-75
2022/03/14 02:19:32;;;;;;;4.30;3.03;;;9.30;99.90;;;;;;5093957;28;20040;-75
2022/03/14 02:21:58;;;;;;;4.10;2.90;;;9.20;99.90;;;;;;5093603;28;20093;-75
2022/03/14 02:24:28;;;;;;;6.35;3.33;;;9.20;99.90;;;;;;5094307;28;20036;-75
2022/03/14 02:26:54;;;;;;;3.85;2.50;;;9.20;99.90;;;;;;5093593;28;20059;-75
2022/03/14 02:29:19;;;;;;;4.75;3.10;;;9.20;99.90;;;;;;5093437;28;20396;-75
2022/03/14 02:31:46;;;;;;;4.90;3.10;;;9.20;99.90;;;;;;5092325;28;20048;-75
2022/03/14 02:34:12;;;;;;;3.83;3.03;;;9.20;99.90;;;;;;5093400;28;20036;-75
2022/03/14 02:36:39;;;;;;;4.53;2.80;;;9.20;99.90;;;;;;5093399;28;20109;-75
2022/03/14 02:39:06;;;;;;;4.22;2.92;;;9.20;99.90;;;;;;5093450;28;20067;-75
2022/03/14 02:41:32;;;;;;;3.75;2.72;;;9.20;99.90;;;;;;5093394;28;20044;-75
2022/03/14 02:43:58;;;;;;;6.47;3.08;;;9.30;99.90;;;;;;5093486;28;20056;-75
2022/03/14 02:46:23;;;;;;;3.83;2.90;;;9.30;99.90;;;;;;5093324;28;20052;-75
2022/03/14 02:48:49;;;;;;;3.75;2.58;;;9.30;99.90;;;;;;5075461;28;20048;-75
2022/03/14 02:51:15;;;;;;;4.18;3.08;;;9.30;99.90;;;;;;5093757;28;20044;-75
2022/03/14 02:53:40;;;;;;;5.57;2.67;;;9.40;99.90;;;;;;5092216;28;20093;-75
2022/03/14 02:56:06;;;;;;;3.97;2.55;;;9.40;99.90;;;;;;5093260;28;20129;-75
2022/03/14 02:58:33;;;;;;;4.18;2.40;;;9.40;99.90;;;;;;5093527;28;20522;-75
2022/03/14 03:00:59;;;;;;;3.80;2.53;;;9.50;99.90;;;;;;5093517;28;20365;-75
2022/03/14 03:03:25;;;;;;;3.90;2.40;;;9.50;99.90;;;;;;5092093;28;20381;-75
2022/03/14 03:05:51;;;;;;;3.30;2.10;;;9.50;99.90;;;;;;5095147;28;20058;-75
2022/03/14 03:08:16;;;;;;;3.97;2.58;;;9.50;99.90;;;;;;5096047;28;20048;-75
2022/03/14 03:10:42;;;;;;;3.00;2.13;;;9.50;99.90;;;;;;5095554;28;20048;-75
2022/03/14 03:13:10;;;;;;;3.10;2.25;;;9.50;99.90;;;;;;5096447;28;20040;-75
2022/03/14 03:15:37;;;;;;;3.60;2.33;;;9.50;99.90;;;;;;5095443;28;20135;-75
2022/03/14 03:18:04;;;;;;;3.63;2.50;;;9.50;99.90;;;;;;5095539;28;20411;-75
2022/03/14 03:20:31;;;;;;;4.22;2.38;;;9.50;99.90;;;;;;5096481;28;20051;-75
2022/03/14 03:22:56;;;;;;;3.28;2.20;;;9.50;99.90;;;;;;5096352;28;20555;-75
2022/03/14 03:25:22;;;;;;;3.05;2.17;;;9.50;99.90;;;;;;5096371;28;20035;-75
2022/03/14 03:27:48;;;;;;;2.80;2.00;;;9.50;99.90;;;;;;5096391;28;20040;-75
2022/03/14 03:30:15;;;;;;;3.45;2.42;;;9.50;99.90;;;;;;5095639;28;20044;-75
2022/03/14 03:32:41;;;;;;;3.10;2.33;;;9.50;99.90;;;;;;5096550;28;20044;-75
2022/03/14 03:35:07;;;;;;;3.27;2.23;;;9.50;99.90;;;;;;5096128;28;20036;-75
2022/03/14 03:37:32;;;;;;;3.47;2.38;;;9.50;99.90;;;;;;5096204;28;20127;-75
2022/03/14 03:39:58;;;;;;;3.17;2.40;;;9.50;99.90;;;;;;5095164;28;20474;-75
2022/03/14 03:42:24;;;;;;;3.33;2.30;;;9.50;99.90;;;;;;5095982;28;20093;-75
2022/03/14 03:44:49;;;;;;;3.40;2.40;;;9.60;99.90;;;;;;5095443;28;20369;-75
2022/03/14 03:47:15;;;;;;;3.22;2.13;;;9.60;99.90;;;;;;5095962;28;20040;-75
2022/03/14 03:49:40;;;;;;;4.28;2.60;;;9.60;99.90;;;;;;5095850;28;20548;-75
2022/03/14 03:52:07;;;;;;;3.25;2.25;;;9.60;99.90;;;;;;5095867;28;20044;-75
2022/03/14 03:54:33;;;;;;;3.97;2.50;;;9.50;99.90;;;;;;5095795;28;20044;-75
2022/03/14 03:56:59;;;;;;;3.63;2.58;;;9.60;99.90;;;;;;5094761;28;20051;-75
2022/03/14 03:59:24;;;;;;;3.38;2.45;;;9.60;99.90;;;;;;5094903;28;20602;-75
2022/03/14 04:01:50;;;;;;;4.95;2.80;;;9.50;99.90;;;;;;5094499;28;20040;-75
2022/03/14 04:04:16;;;;;;;3.72;2.47;;;9.50;99.90;;;;;;5095699;28;20480;-75
2022/03/14 04:06:42;;;;;;;4.57;2.20;;;9.50;99.90;;;;;;5094578;28;20047;-75
2022/03/14 04:09:10;;;;;;;3.80;2.65;;;9.50;99.90;;;;;;5095609;28;20043;-75
2022/03/14 04:11:37;;;;;;;4.07;2.78;;;9.50;99.90;;;;;;5095568;28;20048;-75
2022/03/14 04:14:03;;;;;;;4.47;2.63;;;9.50;99.90;;;;;;5094388;28;20048;-75
2022/03/14 04:16:28;;;;;;;4.15;2.42;;;9.50;99.90;;;;;;5094612;28;20498;-75
2022/03/14 04:18:55;;;;;;;4.07;2.70;;;9.40;99.90;;;;;;5095454;28;20052;-75
2022/03/14 04:21:21;;;;;;;4.47;2.72;;;9.50;99.90;;;;;;5095265;28;20515;-75
2022/03/14 04:23:46;;;;;;;5.65;3.05;;;9.40;99.90;;;;;;5095517;28;20040;-75
2022/03/14 04:26:12;;;;;;;5.03;3.00;;;9.40;99.90;;;;;;5094364;28;20047;-75
2022/03/14 04:28:40;;;;;;;5.65;2.60;;;9.40;99.90;;;;;;5095344;28;20475;-75
2022/03/14 04:31:07;;;;;;;4.63;2.63;;;9.30;99.90;;;;;;5095365;28;20044;-75
2022/03/14 04:33:33;;;;;;;4.15;2.72;;;9.30;99.90;;;;;;5094217;28;20232;-75
2022/03/14 04:35:59;;;;;;;4.72;3.00;;;9.30;99.90;;;;;;5095184;28;20444;-75
2022/03/14 04:38:25;;;;;;;4.85;2.67;;;9.30;99.90;;;;;;5095399;28;20044;-75
2022/03/14 04:40:51;;;;;;;4.55;3.08;;;9.30;99.90;;;;;;5094945;28;20048;-74
2022/03/14 04:43:16;;;;;;;4.25;3.05;;;9.20;99.90;;;;;;5094952;28;20055;-75
2022/03/14 04:45:42;;;;;;;5.22;3.00;;;9.20;99.90;;;;;;5094994;28;20052;-75
2022/03/14 04:48:08;;;;;;;4.05;2.60;;;9.20;99.90;;;;;;5093990;28;20059;-75
2022/03/14 04:50:36;;;;;;;6.07;3.03;;;9.20;99.90;;;;;;5094903;28;20048;-75
2022/03/14 04:53:03;;;;;;;4.05;3.05;;;9.20;99.90;;;;;;5095268;28;20135;-75
2022/03/14 04:55:29;;;;;;;;;;;9.20;99.90;;;;;;5095145;28;20395;-75
2022/03/14 04:57:55;;;;;;;5.07;2.85;;;9.20;99.90;;;;;;5094752;28;20018;-75
2022/03/14 05:00:21;;;;;;;4.57;3.47;;;9.10;99.90;;;;;;5093665;28;20036;-75
2022/03/14 05:02:46;;;;;;;4.50;3.28;;;9.10;99.90;;;;;;5094729;28;20047;-75
2022/03/14 05:05:12;;;;;;;5.00;3.20;;;9.00;99.90;;;;;;5094505;28;20039;-75
2022/03/14 05:07:39;;;;;;;4.50;3.25;;;9.00;99.90;;;;;;5094355;28;20158;-75
2022/03/14 05:10:07;;;;;;;7.05;3.25;;;9.00;99.90;;;;;;5094459;28;20052;-75
2022/03/14 05:12:34;;;;;;;5.22;3.40;;;9.00;99.90;;;;;;5093499;28;20044;-75
2022/03/14 05:15:00;;;;;;;4.20;3.10;;;9.00;99.90;;;;;;5093968;28;20052;-74
2022/03/14 05:17:26;;;;;;;4.65;3.25;;;9.00;99.90;;;;;;5094711;28;20101;-75
2022/03/14 05:19:52;;;;;;;5.72;3.50;;;9.00;99.90;;;;;;5094396;28;20047;-75
2022/03/14 05:22:19;;;;;;;5.03;3.55;;;9.00;99.90;;;;;;5094404;28;20123;-75
2022/03/14 05:24:45;;;;;;;6.07;3.80;;;8.90;99.90;;;;;;5094246;28;20120;-75
2022/03/14 05:27:12;;;;;;;5.80;3.15;;;8.90;99.90;;;;;;5094230;28;20052;-75
2022/03/14 05:29:38;;;;;;;;;;;8.90;99.90;;;;;;5094376;28;20062;-76
2022/03/14 05:32:04;;;;;;;4.57;3.42;;;8.90;99.90;;;;;;5094016;28;20007;-75
2022/03/14 05:34:29;;;;;;;4.70;3.10;;;8.80;99.90;;;;;;5094567;28;20040;-75
2022/03/14 05:36:55;;;;;;;5.38;3.67;;;8.80;99.90;;;;;;5093909;28;20131;-75
2022/03/14 05:39:20;;;;;;;4.95;3.42;;;8.80;99.90;;;;;;5094306;28;20044;-75
2022/03/14 05:41:46;;;;;;;5.75;3.92;;;8.80;99.90;;;;;;5093983;28;20040;-75
2022/03/14 05:44:11;;;;;;;6.00;4.03;;;8.70;99.90;;;;;;5092936;28;20048;-75
2022/03/14 05:46:37;;;;;;;6.30;4.47;;;8.70;99.90;;;;;;5093889;28;20051;-74
2022/03/14 05:49:04;;;;;;;5.93;3.80;;;8.70;99.90;;;;;;5093949;28;20131;-76
2022/03/14 05:51:30;;;;;;;;;;;8.70;99.90;;;;;;5094353;28;20048;-74
2022/03/14 05:53:55;;;;;;;6.00;3.70;;;8.70;99.90;;;;;;5093789;28;19943;-74
2022/03/14 05:56:21;;;;;;;6.35;3.80;;;8.70;99.90;;;;;;5093824;28;20097;-74
2022/03/14 05:58:47;;;;;;;6.05;3.63;;;8.60;99.90;;;;;;5093869;28;20186;-74
2022/03/14 06:01:12;;;;;;;4.75;3.40;;;8.70;99.90;;;;;;5093407;28;20059;-74
2022/03/14 06:03:38;;;;;;;6.55;4.45;;;8.70;99.90;;;;;;5093915;28;20054;-74
2022/03/14 06:06:03;;;;;;;5.13;3.88;;;8.60;99.90;;;;;;5093831;28;20043;-74
2022/03/14 06:08:29;;;;;;;6.10;4.10;;;8.60;99.90;;;;;;5093519;28;20040;-74
2022/03/14 06:10:55;;;;;;;5.88;4.18;;;8.60;99.90;;;;;;5093740;28;20400;-75
2022/03/14 06:13:21;;;;;;;5.80;3.93;;;8.60;99.90;;;;;;5093541;28;20088;-74
2022/03/14 06:15:47;;;;;;;5.60;4.00;;;8.60;99.90;;;;;;5093332;28;20684;-74
2022/03/14 06:18:14;;;;;;;6.68;3.95;;;8.60;99.90;;;;;;5093097;28;20052;-74
2022/03/14 06:20:39;;;;;;;6.47;4.47;;;8.60;99.90;;;;;;5093508;28;20045;-74
2022/03/14 06:23:05;;;;;;;5.82;3.90;;;8.60;99.90;;;;;;5093797;28;20089;-74
2022/03/14 06:25:31;;;;;;;6.75;4.50;;;8.60;99.90;;;;;;5093568;28;20048;-74
2022/03/14 06:27:56;;;;;;;6.90;4.93;;;8.50;99.90;;;;;;5093579;28;20044;-74
2022/03/14 06:30:22;;;;;;;7.50;4.70;;;8.50;99.90;;;;;;5093546;28;20486;-74
2022/03/14 06:32:49;;;;;;;7.35;4.72;;;8.50;99.90;;;;;;5093278;28;20036;-73
2022/03/14 06:35:17;;;;;;;;;;;8.50;99.90;;;;;;5093877;28;20044;-73
2022/03/14 06:37:43;;;;;;;8.75;5.18;;;8.50;99.90;;;;;;5093496;28;20288;-73
2022/03/14 06:40:10;;;;;;;7.45;5.10;;;8.50;99.90;;;;;;5094523;28;20052;-73
2022/03/14 06:42:41;;;;;;;6.65;4.90;;;8.50;99.90;;;;;;5097318;28;20178;-74
2022/03/14 06:45:09;;;;;;;8.68;5.43;;;8.50;99.90;;;;;;5097240;28;20050;-74
2022/03/14 06:47:35;;;;;;;8.50;5.22;;;8.50;99.90;;;;;;5097218;28;20044;-74
2022/03/14 06:50:01;;;;;;;8.68;5.47;;;8.50;99.90;;;;;;5097099;28;20144;-74
2022/03/14 06:52:26;;;;;;;8.70;5.65;;;8.50;99.90;;;;;;5097083;28;20127;-74
2022/03/14 06:54:52;;;;;;;7.50;5.18;;;8.50;99.90;;;;;;5096934;28;20056;-75
2022/03/14 06:57:17;;;;;;;8.75;5.38;;;8.50;99.90;;;;;;5096973;28;20052;-72
2022/03/14 06:59:43;;;;;;;8.55;5.90;;;8.50;99.90;;;;;;5096852;28;20131;-75
2022/03/14 07:02:09;;;;;;;10.02;6.38;;;8.50;99.90;;;;;;5097155;28;20051;-75
2022/03/14 07:04:35;;;;;;;8.07;5.60;;;8.50;99.90;;;;;;5096931;28;20426;-74
2022/03/14 07:07:03;;;;;;;8.80;5.75;;;8.50;99.90;;;;;;5097289;28;20122;-75
2022/03/14 07:09:29;;;;;;;11.80;6.13;;;8.50;99.90;;;;;;5093590;28;20449;-75
2022/03/14 07:11:55;;;;;;;8.13;5.80;;;8.50;99.90;;;;;;5076538;28;20044;-75
2022/03/14 07:14:22;;;;;;;9.15;5.88;;;8.50;99.90;;;;;;5058218;28;20178;-75
2022/03/14 07:16:48;;;;;;;9.23;6.25;;;8.50;99.90;;;;;;5076286;28;20060;-74
2022/03/14 07:19:14;;;;;;;9.60;6.22;;;8.50;99.90;;;;;;5076461;28;20040;-74
2022/03/14 07:21:40;;;;;;;10.02;6.47;;;8.50;99.90;;;;;;5076252;28;20397;-74
2022/03/14 07:24:06;;;;;;;8.43;6.18;;;8.50;99.90;;;;;;5076141;28;20037;-74
2022/03/14 07:26:31;;;;;;;10.82;6.50;;;8.50;99.90;;;;;;5076243;28;20059;-73
2022/03/14 07:28:57;;;;;;;9.88;6.38;;;8.60;99.90;;;;;;5076036;28;20135;-74
2022/03/14 07:31:24;;;;;;;10.65;7.07;;;8.90;99.90;;;;;;5076252;28;20052;-74
2022/03/14 07:33:50;;;;;;;12.30;6.95;;;8.60;99.90;;;;;;5075965;28;20128;-75
2022/03/14 07:36:17;;;;;;;10.33;6.80;;;8.60;99.90;;;;;;5075843;28;20530;-76
2022/03/14 07:38:42;;;;;;;10.50;6.32;;;8.60;99.90;;;;;;5075816;28;20048;-75
2022/03/14 07:41:11;;;;;;;11.93;7.30;;;8.60;99.90;;;;;;5075586;28;20114;-74
2022/03/14 07:43:38;;;;;;;12.13;7.78;;;8.60;99.90;;;;;;5075673;28;20488;-74
2022/03/14 07:46:03;;;;;;;11.93;7.82;;;8.60;99.90;;;;;;5075758;28;20087;-74
2022/03/14 07:48:29;;;;;;;13.60;8.25;;;8.60;99.90;;;;;;5075495;28;20086;-74
2022/03/14 07:50:55;;;;;;;11.73;7.60;;;8.60;99.90;;;;;;5075204;28;20097;-74
2022/03/14 07:53:21;;;;;;;13.45;8.07;;;8.60;99.90;;;;;;5075045;28;20052;-73
2022/03/14 07:55:46;;;;;;;12.38;7.55;;;8.60;99.90;;;;;;5074897;28;20055;-74
2022/03/14 07:58:12;;;;;;;10.68;7.47;;;8.70;99.90;;;;;;5075291;28;20051;-74
2022/03/14 08:00:37;;;;;;;11.30;7.53;;;8.70;99.90;;;;;;5074324;28;20635;-74
2022/03/14 08:03:03;;;;;;;11.90;8.00;;;8.70;99.90;;;;;;5075234;28;20067;-74
2022/03/14 08:05:29;;;;;;;12.13;7.65;;;8.70;99.90;;;;;;5075311;28;20041;-74
2022/03/14 08:07:55;;;;;;;11.40;7.45;;;8.70;99.90;;;;;;5075152;28;20131;-73
2022/03/14 08:10:21;;;;;;;10.27;7.25;;;8.70;99.90;;;;;;5075024;28;20060;-73
2022/03/14 08:12:54;;;;;;;14.82;8.40;;;8.70;99.90;;;;;;5075132;28;20055;-73
2022/03/14 08:15:25;;;;;;;14.02;9.40;;;8.80;99.90;;;;;;5074550;28;20063;-73
2022/03/14 08:17:52;;;;;;;16.67;9.40;;;8.80;99.90;;;;;;5075166;28;20062;-73
2022/03/14 08:20:19;;;;;;;;;;;8.80;99.90;;;;;;5075313;28;20450;-73
2022/03/14 08:22:45;;;;;;;14.73;8.93;;;8.80;99.90;;;;;;5074956;28;19928;-74
2022/03/14 08:25:11;;;;;;;12.40;8.88;;;8.80;99.90;;;;;;5073812;28;20049;-74
2022/03/14 08:27:38;;;;;;;13.18;9.30;;;8.80;99.90;;;;;;5074599;28;20040;-74
2022/03/14 08:30:05;;;;;;;13.35;9.48;;;8.80;99.90;;;;;;5074853;28;20097;-74
2022/03/14 08:32:32;;;;;;;13.32;8.63;;;8.90;99.90;;;;;;5074669;28;20109;-73
2022/03/14 08:35:06;;;;;;;12.20;9.07;;;8.90;99.90;;;;;;5074596;28;20040;-72
2022/03/14 08:37:32;;;;;;;14.35;9.13;;;8.90;99.90;;;;;;5074744;28;20047;-71
2022/03/14 08:39:57;;;;;;;14.20;9.35;;;8.90;99.90;;;;;;5074458;28;20045;-75
2022/03/14 08:42:23;;;;;;;14.55;10.25;;;8.90;99.90;;;;;;5074546;28;20493;-72
2022/03/14 08:44:48;;;;;;;14.98;9.65;;;8.80;99.90;;;;;;5074640;28;20433;-72
2022/03/14 08:47:14;;;;;;;14.82;9.27;;;8.80;99.90;;;;;;5074369;28;20071;-72
2022/03/14 08:49:40;;;;;;;12.73;8.93;;;8.90;99.90;;;;;;5073283;28;20480;-73
2022/03/14 08:52:05;;;;;;;12.68;8.40;;;8.90;99.90;;;;;;5074437;28;20044;-73
2022/03/14 08:54:32;;;;;;;14.45;9.95;;;8.90;99.90;;;;;;5073368;28;20048;-72
2022/03/14 08:56:58;;;;;;;16.47;10.27;;;8.90;99.90;;;;;;5074239;28;20051;-72
2022/03/14 08:59:24;;;;;;;15.07;9.60;;;8.90;99.90;;;;;;5074268;28;20052;-72
2022/03/14 09:01:49;;;;;;;12.30;9.10;;;8.90;99.90;;;;;;5078130;28;20029;-74
2022/03/14 09:04:16;;;;;;;14.10;9.73;;;9.00;99.90;;;;;;5093354;28;20048;-74
2022/03/14 09:06:43;;;;;;;15.15;9.93;;;9.00;99.90;;;;;;5082830;28;20473;-74
2022/03/14 09:09:09;;;;;;;15.35;9.95;;;9.00;99.90;;;;;;5075092;28;20101;-73
2022/03/14 09:11:34;;;;;;;16.73;10.57;;;9.00;99.90;;;;;;5073335;28;20500;-73
2022/03/14 09:14:00;;;;;;;14.68;9.80;;;9.00;99.90;;;;;;5079371;28;20076;-72
2022/03/14 09:16:25;;;;;;;17.95;10.73;;;9.00;99.90;;;;;;5093632;28;20040;-74
2022/03/14 09:18:52;;;;;;;14.23;9.70;;;9.00;99.90;;;;;;5093837;28;20112;-72
2022/03/14 09:21:19;;;;;;;15.23;10.18;;;9.00;99.90;;;;;;5094587;28;20048;-74
2022/03/14 09:23:45;;;;;;;13.70;9.77;;;9.00;99.90;;;;;;5093573;28;20135;-76
2022/03/14 09:26:10;;;;;;;15.90;10.70;;;8.90;99.90;;;;;;5094120;28;20133;-75
2022/03/14 09:28:39;;;;;;;16.15;10.63;;;8.90;99.90;;;;;;5094445;28;20051;-74
2022/03/14 09:31:05;;;;;;;16.70;11.25;;;8.90;99.90;;;;;;5094099;28;20044;-73
2022/03/14 09:33:31;;;;;;;19.23;11.60;;;8.90;99.90;;;;;;5093947;28;20051;-73
2022/03/14 09:35:56;;;;;;;16.25;10.80;;;8.90;99.90;;;;;;5093037;28;20048;-74
2022/03/14 09:38:24;;;;;;;17.52;12.27;;;8.90;99.90;;;;;;5093825;28;20103;-74
2022/03/14 09:40:50;;;;;;;17.75;11.98;;;8.90;99.90;;;;;;5093649;28;20130;-73
2022/03/14 09:43:17;;;;;;;18.23;12.90;;;8.90;99.90;;;;;;5093994;28;20411;-74
2022/03/14 09:45:47;;;;;;;21.85;12.60;;;8.90;99.90;;;;;;5093829;28;20044;-73
2022/03/14 09:48:15;;;;;;;22.20;13.27;;;8.90;99.90;;;;;;5093757;28;20079;-73
2022/03/14 09:50:44;;;;;;;21.33;12.25;;;8.90;99.90;;;;;;5093908;28;20047;-74
2022/03/14 09:53:14;;;;;;;20.27;13.45;;;8.90;99.90;;;;;;5092448;28;20061;-74
2022/03/14 09:55:43;;;;;;;18.30;11.65;;;8.90;99.90;;;;;;5093730;28;20051;-75
2022/03/14 09:58:10;;;;;;;17.77;10.80;;;8.90;99.90;;;;;;5093718;28;20051;-75
2022/03/14 10:00:36;;;;;;;14.30;9.38;;;8.90;99.90;;;;;;5093596;28;20100;-75
2022/03/14 10:03:03;;;;;;;13.43;7.97;;;8.90;99.90;;;;;;5093652;28;20078;-74
2022/03/14 10:05:29;;;;;;;10.05;7.40;;;8.80;99.90;;;;;;5093302;28;20052;-73
2022/03/14 10:07:55;;;;;;;11.38;7.88;;;8.90;99.90;;;;;;5092876;28;20056;-73
2022/03/14 10:10:21;;;;;;;12.85;7.55;;;8.90;99.90;;;;;;5093468;28;20062;-73
2022/03/14 10:12:53;;;;;;;11.10;7.30;;;8.80;99.90;;;;;;5093404;28;20044;-74
2022/03/14 10:15:19;;;;;;;13.93;8.25;;;8.90;99.90;;;;;;5094348;28;20165;-73
2022/03/14 10:17:46;;;;;;;11.40;7.93;;;9.00;99.90;;;;;;5097634;28;20044;-74
2022/03/14 10:20:15;;;;;;;13.05;7.57;;;9.00;99.90;;;;;;5097201;28;20048;-76
2022/03/14 10:22:41;;;;;;;14.07;8.68;;;9.00;99.90;;;;;;5097379;28;20040;-75
2022/03/14 10:25:18;;;;;;;15.93;9.90;;;9.00;99.90;;;;;;5096445;28;20458;-74
2022/03/14 10:27:47;;;;;;;14.90;9.48;;;9.00;99.90;;;;;;5097395;28;20497;-74
2022/03/14 10:30:27;;;;;;;15.30;9.95;;;9.00;99.90;;;;;;5097278;28;20048;-73
2022/03/14 10:33:10;;;;;;;16.10;10.18;;;9.00;99.90;;;;;;5097101;28;20048;-73
2022/03/14 10:35:38;;;;;;;20.40;11.10;;;9.00;99.90;;;;;;5097059;28;20101;-73
2022/03/14 10:38:06;;;;;;;19.60;10.68;;;8.90;99.90;;;;;;5097128;28;20043;-73
2022/03/14 10:40:37;;;;;;;15.40;10.73;;;9.00;99.90;;;;;;5095911;28;20399;-74
2022/03/14 10:43:08;;;;;;;16.98;9.35;;;9.00;99.90;;;;;;5097098;28;20142;-74
2022/03/14 10:45:34;;;;;;;15.43;10.00;;;9.00;99.90;;;;;;5096954;28;20093;-74
2022/03/14 10:48:02;;;;;;;19.67;10.10;;;9.00;99.90;;;;;;5096977;28;20055;-74
2022/03/14 10:50:36;;;;;;;18.60;9.90;;;9.10;99.90;;;;;;5096555;28;20429;-73
2022/03/14 10:53:05;;;;;;;18.30;9.52;;;9.10;99.90;;;;;;5096753;28;20101;-73
2022/03/14 10:55:39;;;;;;;16.08;9.20;;;9.10;99.90;;;;;;5096714;28;20127;-74
2022/03/14 10:58:12;;;;;;;19.42;9.57;;;9.10;99.90;;;;;;5096739;28;20044;-73
2022/03/14 11:00:56;;;;;;;17.85;9.40;;;9.10;99.90;;;;;;5097092;28;20048;-73
2022/03/14 11:03:25;;;;;;;16.50;8.73;;;9.20;99.90;;;;;;5096655;28;20052;-72
2022/03/14 11:05:53;;;;;;;16.77;8.63;;;9.20;99.90;;;;;;5096297;28;20057;-74
2022/03/14 11:08:38;;;;;;;14.13;9.30;;;9.20;99.90;;;;;;5096679;28;20130;-73
2022/03/14 11:11:06;;;;;;;20.80;8.60;;;9.30;99.90;;;;;;5096535;28;20123;-72
2022/03/14 11:13:38;;;;;;;22.58;9.05;;;9.30;99.90;;;;;;5096415;28;20078;-72
2022/03/14 11:16:04;;;;;;;13.38;7.88;;;9.40;99.90;;;;;;5096529;28;20054;-73
2022/03/14 11:18:31;;;;;;;18.00;8.67;;;9.50;99.90;;;;;;5078329;28;20055;-72
2022/03/14 11:21:00;;;;;;;14.68;7.28;;;9.50;99.90;;;;;;5094919;28;20336;-74
2022/03/14 11:23:26;;;;;;;13.93;7.30;;;9.60;99.90;;;;;;5095945;28;20075;-72
2022/03/14 11:25:52;;;;;;;15.27;6.57;;;9.60;99.90;;;;;;5095750;28;20047;-72
2022/03/14 11:28:21;;;;;;;11.57;6.20;;;9.70;99.90;;;;;;5096104;28;20054;-71
2022/03/14 11:31:05;;;;;;;10.77;5.53;;;9.70;99.90;;;;;;5094835;28;20051;-72
2022/03/14 11:33:32;;;;;;;12.52;4.95;;;9.70;99.90;;;;;;5096067;28;20066;-73
2022/03/14 11:36:00;;;;;;;12.90;5.22;;;9.80;99.90;;;;;;5095678;28;20044;-73
2022/03/14 11:38:28;;;;;;;12.20;5.07;;;9.80;99.90;;;;;;5095994;28;20059;-73
2022/03/14 11:40:54;;;;;;;11.75;4.90;;;9.90;99.90;;;;;;5095935;28;20377;-72
2022/03/14 11:43:20;;;;;;;13.30;4.30;;;9.90;99.90;;;;;;5095912;28;20051;-74
2022/03/14 11:45:47;;;;;;;11.40;4.18;;;9.90;99.90;;;;;;5095724;28;20127;-73
2022/03/14 11:48:12;;;;;;;;;;;10.00;99.90;;;;;;5094543;28;20588;-73
2022/03/14 11:51:06;;;;;;;13.27;3.97;;;10.00;99.90;;;;;;5095282;28;19920;-73
2022/03/14 11:53:35;;;;;;;10.02;3.20;;;10.00;99.90;;;;;;5091903;28;20156;-73
2022/03/14 11:56:01;;;;;;;15.88;3.60;;;10.00;99.90;;;;;;5095766;28;20036;-72
2022/03/14 11:58:47;;;;;;;11.80;3.70;;;10.00;99.90;;;;;;5095394;28;20476;-73
2022/03/14 12:01:21;;;;;;;14.82;4.30;;;10.00;99.90;;;;;;5084531;28;20047;-74
2022/03/14 12:03:49;;;;;;;12.63;3.80;;;10.00;99.90;;;;;;5095465;28;20040;-73
2022/03/14 12:06:15;;;;;;;10.00;4.25;;;10.00;99.90;;;;;;5095261;28;20518;-73
2022/03/14 12:08:44;;;;;;;11.80;3.80;;;10.00;99.90;;;;;;5095518;28;20080;-73
2022/03/14 12:11:28;;;;;;;10.52;3.90;;;10.00;99.90;;;;;;5095056;28;20492;-74
2022/03/14 12:13:53;;;;;;;12.30;4.22;;;10.10;99.90;;;;;;5093982;28;20131;-74
2022/03/14 12:16:37;;;;;;;11.43;4.85;;;10.20;99.90;;;;;;5095169;28;20131;-75
2022/03/14 12:19:29;;;;;;;12.57;5.40;;;10.30;99.90;;;;;;5095173;28;20043;-74
2022/03/14 12:21:57;;;;;;;11.25;6.10;;;10.40;99.90;;;;;;5094828;28;20537;-74
2022/03/14 12:24:37;;;;;;;8.63;6.07;;;10.50;99.90;;;;;;5094831;28;20059;-74
2022/03/14 12:27:33;;;;;;;12.40;7.13;;;10.60;99.90;;;;;;5094848;28;20047;-74
2022/03/14 12:30:24;;;;;;;11.40;6.47;;;10.80;99.90;;;;;;5093282;28;20483;-74
2022/03/14 12:32:55;;;;;;;15.15;7.03;;;10.90;99.90;;;;;;5092755;28;20142;-73
2022/03/14 12:35:25;;;;;;;17.20;8.45;;;11.10;99.90;;;;;;5094624;28;20119;-72
2022/03/14 12:37:55;;;;;;;16.67;8.55;;;11.10;99.90;;;;;;5094072;28;20122;-72
2022/03/14 12:40:23;;;;;;;17.05;9.02;;;11.20;99.90;;;;;;5094295;28;20048;-73
2022/03/14 12:42:52;;;;;;;15.95;8.80;;;11.20;99.90;;;;;;5092717;28;20518;-73
2022/03/14 12:45:29;;;;;;;12.57;8.27;;;11.20;99.90;;;;;;5093952;28;20047;-73
2022/03/14 12:48:12;;;;;;;16.67;8.50;;;11.20;99.90;;;;;;5094529;28;20087;-73
2022/03/14 12:50:50;;;;;;;17.02;8.82;;;11.10;99.90;;;;;;5093487;28;20063;-73
2022/03/14 12:53:35;;;;;;;14.48;8.82;;;11.10;99.90;;;;;;5093988;28;20087;-74